createdAt,value
2018-09-30T00:00:10.394Z,1.97
2018-09-30T00:02:39.052Z,1.70
2018-09-30T00:05:07.697Z,2.10
2018-09-30T00:07:36.359Z,2.30
2018-09-30T00:10:05.069Z,1.07
2018-09-30T00:12:33.726Z,1.00
2018-09-30T00:15:02.366Z,1.63
2018-09-30T00:17:31.019Z,3.27
2018-09-30T00:19:59.688Z,1.77
2018-09-30T00:22:28.338Z,1.00
2018-09-30T00:25:02.227Z,1.00
2018-09-30T00:27:37.436Z,1.40
2018-09-30T00:30:06.364Z,1.57
2018-09-30T00:32:35.024Z,1.33
2018-09-30T00:35:03.685Z,1.43
2018-09-30T00:37:32.329Z,1.30
2018-09-30T00:40:01.001Z,1.70
2018-09-30T00:42:29.643Z,1.47
2018-09-30T00:44:58.312Z,2.77
2018-09-30T00:47:27.026Z,1.57
2018-09-30T00:49:55.970Z,1.10
2018-09-30T00:52:24.660Z,2.37
2018-09-30T00:54:53.320Z,0.97
2018-09-30T00:57:21.960Z,1.60
2018-09-30T00:59:50.632Z,2.60
2018-09-30T01:02:19.300Z,2.30
2018-09-30T01:04:47.948Z,2.53
2018-09-30T01:07:16.604Z,1.40
2018-09-30T01:09:45.277Z,1.80
2018-09-30T01:12:13.911Z,1.37
2018-09-30T01:14:42.577Z,0.93
2018-09-30T01:17:11.221Z,2.30
2018-09-30T01:19:39.896Z,1.10
2018-09-30T01:22:08.528Z,1.10
2018-09-30T01:24:37.205Z,1.80
2018-09-30T01:27:05.875Z,1.90
2018-09-30T01:29:34.576Z,1.93
2018-09-30T01:32:03.255Z,0.90
2018-09-30T01:34:31.909Z,1.43
2018-09-30T01:37:00.557Z,2.33
2018-09-30T01:39:29.250Z,1.87
2018-09-30T01:41:57.913Z,2.17
2018-09-30T01:44:26.548Z,2.30
2018-09-30T01:46:55.212Z,1.53
2018-09-30T01:49:23.911Z,1.67
2018-09-30T01:53:03.628Z,2.23
2018-09-30T01:55:32.344Z,1.40
2018-09-30T01:58:00.997Z,1.20
2018-09-30T02:00:29.660Z,1.70
2018-09-30T02:02:58.293Z,1.10
2018-09-30T02:05:26.948Z,0.70
2018-09-30T02:07:55.619Z,0.83
2018-09-30T02:10:24.264Z,2.27
2018-09-30T02:12:52.955Z,2.03
2018-09-30T02:15:21.640Z,1.20
2018-09-30T02:17:50.277Z,2.00
2018-09-30T02:20:18.936Z,1.27
2018-09-30T02:22:47.584Z,1.80
2018-09-30T02:25:16.228Z,1.80
2018-09-30T02:27:44.960Z,0.70
2018-09-30T02:30:13.620Z,0.90
2018-09-30T02:32:42.294Z,2.43
2018-09-30T02:35:10.986Z,1.17
2018-09-30T02:37:39.616Z,1.33
2018-09-30T02:40:08.546Z,1.43
2018-09-30T02:42:37.207Z,0.93
2018-09-30T02:45:05.881Z,1.53
2018-09-30T02:47:34.536Z,1.90
2018-09-30T02:50:03.236Z,1.13
2018-09-30T02:52:31.894Z,1.80
2018-09-30T02:55:00.596Z,2.57
2018-09-30T02:57:29.304Z,1.70
2018-09-30T02:59:58.100Z,1.53
2018-09-30T03:02:26.763Z,1.00
2018-09-30T03:04:55.402Z,0.87
2018-09-30T03:07:29.412Z,0.80
2018-09-30T03:09:58.080Z,1.03
2018-09-30T03:12:26.736Z,2.10
2018-09-30T03:14:55.389Z,1.70
2018-09-30T03:17:24.136Z,2.00
2018-09-30T03:19:52.798Z,1.30
2018-09-30T03:22:21.470Z,1.13
2018-09-30T03:24:50.177Z,0.67
2018-09-30T03:27:18.841Z,0.70
2018-09-30T03:29:47.490Z,1.53
2018-09-30T03:32:16.396Z,1.57
2018-09-30T03:34:45.058Z,0.50
2018-09-30T03:37:13.734Z,0.77
2018-09-30T03:39:42.475Z,1.17
2018-09-30T03:42:11.060Z,1.37
2018-09-30T03:44:39.723Z,1.53
2018-09-30T03:47:08.384Z,1.03
2018-09-30T03:49:37.030Z,1.97
2018-09-30T03:52:05.698Z,1.20
2018-09-30T03:54:34.340Z,1.37
2018-09-30T03:57:03.031Z,0.70
2018-09-30T03:59:31.692Z,1.87
2018-09-30T04:02:00.897Z,1.03
2018-09-30T04:04:29.566Z,0.93
2018-09-30T04:06:58.228Z,1.10
2018-09-30T04:09:26.931Z,2.43
2018-09-30T04:11:55.564Z,1.13
2018-09-30T04:14:24.346Z,1.53
2018-09-30T04:16:53.031Z,1.60
2018-09-30T04:19:21.868Z,1.07
2018-09-30T04:21:50.540Z,0.73
2018-09-30T04:24:19.246Z,0.60
2018-09-30T04:26:47.918Z,1.80
2018-09-30T04:29:16.585Z,0.87
2018-09-30T04:31:45.275Z,1.00
2018-09-30T04:34:13.924Z,0.60
2018-09-30T04:36:42.560Z,1.37
2018-09-30T04:39:11.243Z,1.17
2018-09-30T04:41:39.904Z,0.87
2018-09-30T04:44:08.601Z,1.77
2018-09-30T04:46:37.255Z,1.50
2018-09-30T04:49:06.317Z,1.30
2018-09-30T04:51:34.976Z,1.00
2018-09-30T04:54:03.636Z,0.77
2018-09-30T04:56:32.280Z,1.60
2018-09-30T04:59:00.940Z,1.43
2018-09-30T05:01:29.580Z,1.07
2018-09-30T05:03:58.241Z,0.87
2018-09-30T05:06:26.923Z,1.03
2018-09-30T05:08:55.630Z,1.20
2018-09-30T05:11:24.285Z,1.47
2018-09-30T05:13:52.974Z,1.00
2018-09-30T05:16:21.681Z,0.93
2018-09-30T05:18:50.288Z,0.90
2018-09-30T05:21:18.961Z,1.53
2018-09-30T05:23:47.596Z,1.20
2018-09-30T05:26:16.257Z,0.93
2018-09-30T05:28:44.918Z,0.90
2018-09-30T05:31:13.644Z,1.07
2018-09-30T05:33:42.285Z,1.33
2018-09-30T05:36:10.940Z,0.93
2018-09-30T05:38:39.603Z,0.60
2018-09-30T05:41:08.251Z,0.80
2018-09-30T05:43:36.893Z,2.20
2018-09-30T05:46:05.735Z,1.10
2018-09-30T05:48:34.397Z,1.60
2018-09-30T05:51:03.079Z,1.80
2018-09-30T05:53:31.745Z,2.87
2018-09-30T05:56:00.600Z,1.40
2018-09-30T05:58:29.240Z,0.90
2018-09-30T06:00:57.892Z,1.47
2018-09-30T06:03:26.823Z,0.90
2018-09-30T06:05:55.525Z,1.03
2018-09-30T06:08:24.194Z,1.47
2018-09-30T06:10:52.848Z,1.30
2018-09-30T06:13:21.508Z,1.10
2018-09-30T06:15:50.175Z,1.23
2018-09-30T06:18:18.827Z,1.50
2018-09-30T06:20:47.481Z,2.17
2018-09-30T06:23:16.148Z,1.40
2018-09-30T06:25:44.991Z,1.87
2018-09-30T06:28:13.661Z,1.23
2018-09-30T06:30:42.315Z,1.50
2018-09-30T06:33:10.975Z,1.50
2018-09-30T06:35:39.668Z,1.17
2018-09-30T06:38:08.327Z,1.63
2018-09-30T06:40:36.973Z,1.53
2018-09-30T06:43:05.816Z,1.60
2018-09-30T06:45:34.554Z,1.50
2018-09-30T06:48:03.524Z,1.30
2018-09-30T06:50:32.845Z,1.47
2018-09-30T06:53:02.061Z,1.03
2018-09-30T06:55:30.884Z,1.93
2018-09-30T06:57:59.555Z,2.37
2018-09-30T07:00:28.232Z,1.20
2018-09-30T07:02:56.872Z,1.40
2018-09-30T07:05:25.804Z,0.97
2018-09-30T07:07:54.483Z,2.07
2018-09-30T07:10:23.130Z,1.60
2018-09-30T07:12:51.760Z,0.90
2018-09-30T07:15:20.408Z,1.50
2018-09-30T07:17:49.072Z,1.10
2018-09-30T07:20:17.728Z,2.70
2018-09-30T07:22:46.408Z,1.53
2018-09-30T07:25:15.092Z,1.90
2018-09-30T07:27:43.740Z,2.33
2018-09-30T07:30:12.404Z,1.67
2018-09-30T07:32:41.063Z,1.17
2018-09-30T07:35:09.733Z,2.63
2018-09-30T07:37:38.364Z,2.80
2018-09-30T07:40:06.996Z,1.87
2018-09-30T07:42:35.662Z,1.37
2018-09-30T07:45:04.469Z,3.57
2018-09-30T07:47:33.118Z,3.00
2018-09-30T07:50:01.772Z,1.50
2018-09-30T07:52:30.578Z,1.90
2018-09-30T07:54:59.181Z,2.27
2018-09-30T07:57:27.821Z,1.47
2018-09-30T07:59:56.472Z,1.53
2018-09-30T08:02:25.161Z,2.60
2018-09-30T08:04:53.812Z,2.10
2018-09-30T08:07:22.470Z,2.00
2018-09-30T08:09:51.312Z,3.23
2018-09-30T08:12:20.001Z,1.60
2018-09-30T08:14:48.665Z,1.33
2018-09-30T08:17:17.340Z,2.07
2018-09-30T08:19:45.989Z,2.67
2018-09-30T08:22:14.665Z,1.57
2018-09-30T08:24:43.360Z,1.30
2018-09-30T08:27:12.037Z,2.53
2018-09-30T08:29:40.701Z,2.80
2018-09-30T08:32:09.360Z,1.83
2018-09-30T08:34:38.064Z,2.07
2018-09-30T08:37:06.724Z,2.70
2018-09-30T08:39:35.460Z,3.50
2018-09-30T08:42:04.020Z,1.70
2018-09-30T08:44:32.677Z,2.00
2018-09-30T08:47:01.621Z,2.87
2018-09-30T08:49:30.280Z,3.43
2018-09-30T08:51:58.973Z,1.57
2018-09-30T08:54:27.641Z,1.07
2018-09-30T08:56:56.280Z,1.10
2018-09-30T08:59:24.949Z,1.23
2018-09-30T09:01:53.585Z,1.60
2018-09-30T09:04:22.287Z,1.53
2018-09-30T09:06:51.384Z,1.57
2018-09-30T09:09:20.063Z,1.70
2018-09-30T09:11:48.692Z,1.33
2018-09-30T09:14:17.339Z,2.10
2018-09-30T09:16:45.979Z,1.40
2018-09-30T09:19:14.647Z,1.40
2018-09-30T09:21:43.307Z,1.80
2018-09-30T09:24:11.960Z,2.00
2018-09-30T09:26:40.658Z,3.23
2018-09-30T09:29:09.321Z,1.43
2018-09-30T09:31:38.025Z,1.10
2018-09-30T09:34:06.993Z,3.23
2018-09-30T09:36:35.667Z,77.53
2018-09-30T09:39:07.693Z,146.93
2018-09-30T09:41:37.033Z,142.97
2018-09-30T09:44:05.973Z,154.57
2018-09-30T09:46:34.629Z,114.57
2018-09-30T09:49:03.952Z,116.37
2018-09-30T09:51:32.607Z,113.23
2018-09-30T09:54:01.313Z,81.50
2018-09-30T09:56:29.980Z,77.27
2018-09-30T09:58:58.661Z,80.20
2018-09-30T10:01:27.314Z,126.93
2018-09-30T10:03:56.003Z,136.97
2018-09-30T10:06:24.648Z,173.03
2018-09-30T10:08:53.438Z,137.00
2018-09-30T10:11:22.109Z,124.43
2018-09-30T10:13:50.769Z,117.97
2018-09-30T10:16:19.470Z,117.37
2018-09-30T10:18:48.116Z,104.10
2018-09-30T10:21:16.757Z,97.73
2018-09-30T10:23:45.422Z,96.13
2018-09-30T10:26:14.080Z,90.47
2018-09-30T10:28:42.756Z,97.23
2018-09-30T10:31:11.410Z,84.83
2018-09-30T10:33:40.057Z,105.07
2018-09-30T10:36:08.712Z,181.70
2018-09-30T10:38:37.541Z,294.77
2018-09-30T10:41:06.657Z,347.97
2018-09-30T10:43:35.340Z,386.17
2018-09-30T10:46:04.516Z,337.83
2018-09-30T10:48:33.642Z,323.67
2018-09-30T10:51:02.306Z,303.60
2018-09-30T10:53:30.981Z,268.43
2018-09-30T10:55:59.648Z,260.43
2018-09-30T10:58:28.356Z,251.63
2018-09-30T11:00:57.049Z,355.40
2018-09-30T11:03:25.861Z,402.90
2018-09-30T11:05:54.537Z,391.80
2018-09-30T11:08:23.192Z,398.83
2018-09-30T11:10:52.093Z,356.83
2018-09-30T11:13:20.757Z,330.20
2018-09-30T11:15:49.488Z,296.47
2018-09-30T11:18:18.790Z,249.73
2018-09-30T11:20:49.816Z,272.23
2018-09-30T11:23:18.642Z,261.90
2018-09-30T11:25:47.604Z,236.87
2018-09-30T11:28:16.325Z,223.47
2018-09-30T11:30:44.996Z,214.17
2018-09-30T11:33:13.648Z,222.53
2018-09-30T11:35:42.324Z,193.80
2018-09-30T11:38:11.040Z,184.03
2018-09-30T11:40:39.707Z,174.77
2018-09-30T11:43:08.455Z,171.43
2018-09-30T11:45:37.071Z,159.10
2018-09-30T11:48:05.732Z,160.87
2018-09-30T11:50:34.399Z,158.37
2018-09-30T11:53:03.086Z,155.70
2018-09-30T11:55:31.751Z,141.73
2018-09-30T11:58:00.407Z,129.73
2018-09-30T12:00:29.124Z,129.97
2018-09-30T12:02:57.796Z,126.40
2018-09-30T12:05:26.441Z,127.37
2018-09-30T12:07:55.261Z,117.77
2018-09-30T12:10:23.926Z,113.73
2018-09-30T12:12:52.634Z,114.70
2018-09-30T12:15:21.298Z,106.73
2018-09-30T12:17:49.951Z,104.80
2018-09-30T12:20:18.587Z,97.23
2018-09-30T12:22:47.236Z,92.03
2018-09-30T12:25:15.901Z,87.23
2018-09-30T12:27:44.548Z,91.33
2018-09-30T12:30:13.245Z,92.00
2018-09-30T12:32:42.284Z,83.67
2018-09-30T12:35:10.945Z,90.90
2018-09-30T12:37:39.597Z,75.80
2018-09-30T12:40:08.255Z,79.33
2018-09-30T12:42:36.919Z,70.77
2018-09-30T12:45:06.021Z,72.47
2018-09-30T12:47:34.668Z,72.03
2018-09-30T12:50:03.333Z,66.50
2018-09-30T12:52:31.995Z,64.53
2018-09-30T12:55:00.660Z,61.50
2018-09-30T12:57:29.337Z,66.80
2018-09-30T12:59:57.980Z,63.10
2018-09-30T13:02:26.634Z,59.73
2018-09-30T13:04:55.281Z,55.87
2018-09-30T13:07:24.020Z,57.13
2018-09-30T13:09:52.681Z,57.10
2018-09-30T13:12:21.389Z,50.63
2018-09-30T13:14:50.056Z,51.30
2018-09-30T13:17:18.705Z,49.60
2018-09-30T13:19:47.356Z,45.43
2018-09-30T13:22:16.010Z,47.10
2018-09-30T13:24:44.662Z,46.13
2018-09-30T13:27:13.324Z,39.43
2018-09-30T13:29:41.984Z,43.20
2018-09-30T13:32:10.864Z,40.10
2018-09-30T13:34:39.568Z,38.47
2018-09-30T13:37:08.259Z,40.13
2018-09-30T13:39:36.913Z,37.23
2018-09-30T13:42:05.600Z,39.53
2018-09-30T13:44:34.252Z,33.53
2018-09-30T13:47:02.897Z,33.73
2018-09-30T13:49:31.549Z,33.73
2018-09-30T13:52:00.209Z,30.10
2018-09-30T13:54:28.869Z,30.37
2018-09-30T13:56:57.532Z,29.40
2018-09-30T13:59:26.204Z,27.03
2018-09-30T14:01:54.870Z,27.30
2018-09-30T14:04:23.548Z,28.53
2018-09-30T14:06:52.226Z,27.77
2018-09-30T14:09:20.932Z,26.53
2018-09-30T14:11:49.584Z,28.37
2018-09-30T14:14:18.232Z,24.87
2018-09-30T14:16:46.889Z,25.07
2018-09-30T14:19:15.551Z,25.73
2018-09-30T14:21:44.197Z,24.60
2018-09-30T14:24:12.837Z,22.50
2018-09-30T14:26:41.492Z,24.23
2018-09-30T14:29:10.179Z,22.70
2018-09-30T14:31:38.852Z,23.43
2018-09-30T14:34:07.543Z,20.97
2018-09-30T14:36:36.204Z,21.60
2018-09-30T14:39:08.525Z,21.13
2018-09-30T14:41:37.206Z,20.17
2018-09-30T14:44:05.855Z,21.70
2018-09-30T14:46:34.501Z,20.03
2018-09-30T14:49:03.200Z,20.13
2018-09-30T14:51:31.877Z,18.93
2018-09-30T14:54:00.632Z,18.90
2018-09-30T14:56:29.225Z,17.07
2018-09-30T14:58:57.887Z,18.67
2018-09-30T15:01:26.536Z,18.23
2018-09-30T15:03:55.211Z,15.50
2018-09-30T15:06:23.885Z,15.77
2018-09-30T15:08:52.540Z,16.93
2018-09-30T15:11:21.225Z,18.53
2018-09-30T15:13:49.869Z,17.87
2018-09-30T15:16:18.528Z,15.83
2018-09-30T15:18:47.219Z,15.53
2018-09-30T15:21:15.893Z,16.30
2018-09-30T15:23:44.556Z,16.00
2018-09-30T15:26:13.229Z,15.77
2018-09-30T15:28:41.884Z,14.50
2018-09-30T15:31:10.528Z,15.10
2018-09-30T15:33:39.192Z,15.13
2018-09-30T15:36:07.869Z,16.23
2018-09-30T15:38:36.512Z,14.63
2018-09-30T15:41:05.228Z,14.40
2018-09-30T15:43:33.901Z,15.33
2018-09-30T15:46:02.547Z,15.20
2018-09-30T15:48:31.188Z,13.43
2018-09-30T15:51:00.019Z,13.73
2018-09-30T15:53:29.008Z,15.30
2018-09-30T15:55:57.656Z,13.90
2018-09-30T15:58:26.331Z,13.43
2018-09-30T16:00:55.027Z,13.23
2018-09-30T16:03:23.725Z,13.37
2018-09-30T16:05:52.405Z,13.90
2018-09-30T16:08:21.044Z,12.80
2018-09-30T16:10:49.724Z,12.20
2018-09-30T16:13:18.461Z,12.80
2018-09-30T16:15:47.180Z,12.23
2018-09-30T16:18:15.828Z,10.73
2018-09-30T16:20:44.535Z,12.00
2018-09-30T16:23:13.228Z,11.23
2018-09-30T16:25:41.896Z,12.37
2018-09-30T16:28:10.613Z,11.97
2018-09-30T16:30:39.288Z,12.60
2018-09-30T16:33:07.961Z,9.97
2018-09-30T16:35:36.632Z,11.90
2018-09-30T16:38:05.268Z,10.83
2018-09-30T16:40:33.924Z,11.33
2018-09-30T16:43:02.612Z,9.83
2018-09-30T16:45:31.269Z,9.00
2018-09-30T16:48:00.084Z,8.97
2018-09-30T16:50:28.769Z,10.07
2018-09-30T16:52:57.380Z,8.03
2018-09-30T16:55:26.016Z,9.87
2018-09-30T16:57:54.673Z,10.20
2018-09-30T17:00:23.340Z,9.23
2018-09-30T17:02:51.976Z,9.67
2018-09-30T17:05:20.644Z,10.00
2018-09-30T17:07:49.360Z,9.83
2018-09-30T17:10:18.025Z,8.77
2018-09-30T17:12:46.672Z,9.70
2018-09-30T17:15:15.318Z,9.43
2018-09-30T17:17:44.152Z,9.67
2018-09-30T17:20:12.820Z,10.47
2018-09-30T17:22:41.502Z,10.47
2018-09-30T17:25:10.197Z,11.30
2018-09-30T17:27:38.859Z,11.57
2018-09-30T17:30:07.509Z,11.30
2018-09-30T17:32:36.176Z,11.63
2018-09-30T17:35:05.275Z,12.47
2018-09-30T17:37:33.920Z,13.27
2018-09-30T17:40:02.570Z,13.67
2018-09-30T17:42:31.242Z,10.23
2018-09-30T17:44:59.932Z,12.47
2018-09-30T17:47:28.624Z,10.80
2018-09-30T17:49:57.264Z,13.13
2018-09-30T17:52:25.926Z,10.60
2018-09-30T17:54:54.620Z,10.30
2018-09-30T17:57:23.284Z,11.83
2018-09-30T17:59:51.924Z,10.37
2018-09-30T18:02:20.575Z,12.47
2018-09-30T18:04:49.270Z,9.47
2018-09-30T18:07:17.964Z,10.60
2018-09-30T18:09:46.708Z,10.83
2018-09-30T18:12:15.345Z,10.27
2018-09-30T18:14:44.016Z,10.40
2018-09-30T18:17:12.760Z,9.03
2018-09-30T18:19:41.452Z,9.90
2018-09-30T18:22:10.114Z,8.40
2018-09-30T18:24:38.952Z,9.97
2018-09-30T18:27:07.611Z,9.43
2018-09-30T18:29:36.308Z,10.20
2018-09-30T18:32:05.180Z,8.60
2018-09-30T18:34:33.826Z,8.50
2018-09-30T18:37:02.544Z,8.40
2018-09-30T18:39:31.219Z,8.27
2018-09-30T18:42:00.059Z,8.77
2018-09-30T18:44:28.727Z,7.77
2018-09-30T18:46:57.385Z,8.60
2018-09-30T18:52:00.915Z,7.67
2018-09-30T18:54:29.582Z,6.90
2018-09-30T18:56:58.225Z,7.30
2018-09-30T18:59:26.916Z,6.77
2018-09-30T19:01:55.589Z,7.07
2018-09-30T19:04:24.227Z,6.93
2018-09-30T19:06:52.880Z,8.00
2018-09-30T19:09:21.569Z,7.50
2018-09-30T19:11:50.240Z,7.83
2018-09-30T19:14:18.890Z,6.50
2018-09-30T19:16:47.545Z,7.53
2018-09-30T19:19:16.201Z,6.43
2018-09-30T19:21:44.839Z,5.80
2018-09-30T19:24:13.537Z,5.67
2018-09-30T19:26:42.212Z,5.13
2018-09-30T19:29:10.846Z,7.00
2018-09-30T19:31:39.516Z,4.80
2018-09-30T19:34:08.164Z,5.63
2018-09-30T19:36:37.065Z,6.07
2018-09-30T19:39:08.425Z,8.93
2018-09-30T19:41:37.164Z,4.97
2018-09-30T19:44:05.785Z,4.90
2018-09-30T19:46:34.645Z,5.20
2018-09-30T19:49:03.329Z,4.87
2018-09-30T19:51:31.997Z,5.40
2018-09-30T19:54:00.697Z,4.17
2018-09-30T19:56:29.353Z,5.43
2018-09-30T19:58:58.044Z,5.17
2018-09-30T20:01:26.706Z,4.63
2018-09-30T20:03:55.371Z,4.03
2018-09-30T20:06:24.008Z,4.00
2018-09-30T20:08:52.652Z,3.97
2018-09-30T20:11:21.304Z,4.77
2018-09-30T20:13:49.967Z,5.40
2018-09-30T20:16:18.614Z,4.60
2018-09-30T20:18:47.304Z,4.10
2018-09-30T20:21:15.965Z,5.63
2018-09-30T20:23:44.641Z,4.33
2018-09-30T20:26:13.293Z,4.63
2018-09-30T20:28:42.036Z,5.27
2018-09-30T20:31:10.712Z,4.87
2018-09-30T20:33:39.369Z,4.27
2018-09-30T20:36:08.005Z,4.93
2018-09-30T20:38:36.658Z,4.10
2018-09-30T20:41:05.312Z,4.00
2018-09-30T20:43:33.968Z,4.13
2018-09-30T20:46:02.659Z,4.00
2018-09-30T20:48:31.305Z,3.87
2018-09-30T20:50:59.932Z,4.17
2018-09-30T20:53:28.580Z,4.90
2018-09-30T20:55:57.292Z,3.93
2018-09-30T20:58:26.852Z,3.70
2018-09-30T21:00:55.507Z,4.00
2018-09-30T21:03:24.165Z,4.23
2018-09-30T21:06:28.864Z,4.37
2018-09-30T21:08:57.509Z,3.83
2018-09-30T21:11:26.569Z,3.60
2018-09-30T21:13:55.225Z,3.60
2018-09-30T21:16:23.856Z,2.77
2018-09-30T21:18:52.526Z,3.97
2018-09-30T21:21:21.216Z,3.33
2018-09-30T21:23:50.072Z,3.87
2018-09-30T21:26:18.705Z,3.77
2018-09-30T21:28:47.364Z,3.47
2018-09-30T21:31:16.168Z,3.17
2018-09-30T21:33:44.992Z,2.83
2018-09-30T21:36:13.654Z,3.17
2018-09-30T21:38:42.340Z,3.40
2018-09-30T21:41:11.352Z,2.90
2018-09-30T21:43:40.012Z,3.17
2018-09-30T21:46:08.721Z,2.87
2018-09-30T21:48:37.443Z,2.73
2018-09-30T21:51:06.252Z,3.67
2018-09-30T21:53:34.924Z,2.33
2018-09-30T21:56:03.609Z,2.37
2018-09-30T21:58:32.276Z,3.20
2018-09-30T22:01:02.240Z,3.10
2018-09-30T22:03:31.366Z,2.10
2018-09-30T22:06:00.168Z,2.23
2018-09-30T22:08:28.831Z,2.83
2018-09-30T22:10:57.500Z,2.50
2018-09-30T22:13:26.167Z,3.80
2018-09-30T22:15:54.828Z,2.30
2018-09-30T22:18:23.484Z,3.20
2018-09-30T22:20:52.124Z,2.80
2018-09-30T22:23:20.761Z,3.47
2018-09-30T22:25:49.424Z,2.60
2018-09-30T22:28:18.068Z,1.97
2018-09-30T22:30:46.732Z,3.10
2018-09-30T22:33:15.420Z,4.20
2018-09-30T22:35:44.071Z,2.63
2018-09-30T22:38:12.768Z,3.00
2018-09-30T22:40:41.456Z,4.07
2018-09-30T22:43:10.121Z,2.50
2018-09-30T22:45:38.764Z,3.30
2018-09-30T22:48:07.433Z,2.77
2018-09-30T22:50:36.132Z,2.13
2018-09-30T22:53:04.803Z,3.20
2018-09-30T22:55:33.430Z,2.70
2018-09-30T22:58:02.065Z,2.20
2018-09-30T23:00:30.719Z,2.30
2018-09-30T23:02:59.372Z,2.40
2018-09-30T23:05:28.040Z,2.27
2018-09-30T23:07:56.697Z,3.93
2018-09-30T23:10:25.364Z,3.47
2018-09-30T23:12:54.008Z,3.57
2018-09-30T23:15:22.674Z,2.43
2018-09-30T23:17:51.324Z,2.33
2018-09-30T23:20:19.956Z,3.90
2018-09-30T23:22:48.628Z,2.93
2018-09-30T23:25:17.280Z,2.90
2018-09-30T23:27:45.981Z,2.13
2018-09-30T23:30:14.636Z,2.23
2018-09-30T23:32:43.286Z,3.13
2018-09-30T23:35:11.920Z,2.53
2018-09-30T23:37:40.550Z,2.90
2018-09-30T23:40:09.245Z,2.30
2018-09-30T23:42:37.952Z,2.17
2018-09-30T23:45:06.644Z,4.20
2018-09-30T23:47:35.282Z,2.20
2018-09-30T23:50:03.941Z,3.60
2018-09-30T23:52:32.601Z,2.50
2018-09-30T23:55:01.260Z,1.80
2018-09-30T23:57:29.909Z,2.20
2018-09-30T23:59:58.581Z,2.70
